sensor_id;sensor_type;location;lat;lon;timestamp;pressure;altitude;pressure_sealevel;temperature;humidity
19797;BME280;10058;57.654;12.044;2023-02-10T00:00:06;101261.81;;;5.12;100.00
19797;BME280;10058;57.654;12.044;2023-02-10T00:02:31;101268.69;;;5.10;100.00
19797;BME280;10058;57.654;12.044;2023-02-10T00:04:56;101271.72;;;5.32;100.00
19797;BME280;10058;57.654;12.044;2023-02-10T00:07:21;101273.91;;;5.10;100.00
19797;BME280;10058;57.654;12.044;2023-02-10T00:09:47;101269.06;;;5.01;100.00
19797;BME280;10058;57.654;12.044;2023-02-10T00:12:13;101270.84;;;5.02;100.00
19797;BME280;10058;57.654;12.044;2023-02-10T00:14:38;101277.00;;;5.03;100.00
19797;BME280;10058;57.654;12.044;2023-02-10T00:17:03;101282.97;;;5.00;100.00
19797;BME280;10058;57.654;12.044;2023-02-10T00:19:29;101283.34;;;4.92;100.00
19797;BME280;10058;57.654;12.044;2023-02-10T00:21:56;101286.75;;;4.90;100.00
19797;BME280;10058;57.654;12.044;2023-02-10T00:24:21;101294.91;;;4.95;100.00
19797;BME280;10058;57.654;12.044;2023-02-10T00:26:46;101256.53;;;4.66;100.00
19797;BME280;10058;57.654;12.044;2023-02-10T00:29:12;101290.91;;;4.87;100.00
19797;BME280;10058;57.654;12.044;2023-02-10T00:31:38;101303.94;;;5.00;100.00
19797;BME280;10058;57.654;12.044;2023-02-10T00:34:03;101299.69;;;4.87;100.00
19797;BME280;10058;57.654;12.044;2023-02-10T00:36:28;101311.78;;;4.85;100.00
19797;BME280;10058;57.654;12.044;2023-02-10T00:38:53;101318.00;;;4.87;100.00
19797;BME280;10058;57.654;12.044;2023-02-10T00:41:20;101321.63;;;4.89;100.00
19797;BME280;10058;57.654;12.044;2023-02-10T00:43:46;101324.88;;;4.85;100.00
19797;BME280;10058;57.654;12.044;2023-02-10T00:46:12;101334.63;;;4.73;100.00
19797;BME280;10058;57.654;12.044;2023-02-10T00:48:37;101346.09;;;4.75;100.00
19797;BME280;10058;57.654;12.044;2023-02-10T00:51:02;101348.09;;;4.79;100.00
19797;BME280;10058;57.654;12.044;2023-02-10T00:53:27;101352.53;;;4.80;100.00
19797;BME280;10058;57.654;12.044;2023-02-10T00:55:53;101355.97;;;4.79;100.00
19797;BME280;10058;57.654;12.044;2023-02-10T00:58:18;101365.84;;;4.70;100.00
19797;BME280;10058;57.654;12.044;2023-02-10T01:00:43;101358.28;;;4.75;100.00
19797;BME280;10058;57.654;12.044;2023-02-10T01:03:08;101358.09;;;4.57;100.00
19797;BME280;10058;57.654;12.044;2023-02-10T01:05:34;101367.66;;;4.71;100.00
19797;BME280;10058;57.654;12.044;2023-02-10T01:07:59;101365.06;;;4.71;100.00
19797;BME280;10058;57.654;12.044;2023-02-10T01:10:24;101363.50;;;4.60;100.00
19797;BME280;10058;57.654;12.044;2023-02-10T01:12:49;101371.91;;;4.69;100.00
19797;BME280;10058;57.654;12.044;2023-02-10T01:15:14;101358.66;;;4.66;100.00
19797;BME280;10058;57.654;12.044;2023-02-10T01:17:40;101357.19;;;4.71;100.00
19797;BME280;10058;57.654;12.044;2023-02-10T01:20:05;101373.63;;;4.69;100.00
19797;BME280;10058;57.654;12.044;2023-02-10T01:22:31;101368.56;;;4.57;100.00
19797;BME280;10058;57.654;12.044;2023-02-10T01:24:57;101384.19;;;4.70;100.00
19797;BME280;10058;57.654;12.044;2023-02-10T01:27:22;101372.72;;;4.68;100.00
19797;BME280;10058;57.654;12.044;2023-02-10T01:29:47;101390.00;;;4.51;100.00
19797;BME280;10058;57.654;12.044;2023-02-10T01:32:12;101381.34;;;4.52;100.00
19797;BME280;10058;57.654;12.044;2023-02-10T01:34:38;101362.38;;;4.42;100.00
19797;BME280;10058;57.654;12.044;2023-02-10T01:37:03;101398.88;;;4.53;100.00
19797;BME280;10058;57.654;12.044;2023-02-10T01:39:28;101408.81;;;4.59;100.00
19797;BME280;10058;57.654;12.044;2023-02-10T01:41:53;101404.81;;;4.51;100.00
19797;BME280;10058;57.654;12.044;2023-02-10T01:46:44;101407.88;;;4.44;100.00
19797;BME280;10058;57.654;12.044;2023-02-10T01:49:10;101419.63;;;4.50;100.00
19797;BME280;10058;57.654;12.044;2023-02-10T01:51:41;101424.72;;;4.62;100.00
19797;BME280;10058;57.654;12.044;2023-02-10T01:54:08;101426.75;;;4.53;100.00
19797;BME280;10058;57.654;12.044;2023-02-10T01:56:35;101432.72;;;4.50;100.00
19797;BME280;10058;57.654;12.044;2023-02-10T01:59:00;101445.19;;;4.54;100.00
19797;BME280;10058;57.654;12.044;2023-02-10T02:01:25;101433.59;;;4.64;100.00
19797;BME280;10058;57.654;12.044;2023-02-10T02:03:50;101436.97;;;4.48;100.00
19797;BME280;10058;57.654;12.044;2023-02-10T02:06:16;101443.66;;;4.58;100.00
19797;BME280;10058;57.654;12.044;2023-02-10T02:08:41;101451.28;;;4.68;100.00
19797;BME280;10058;57.654;12.044;2023-02-10T02:11:12;101439.34;;;4.59;100.00
19797;BME280;10058;57.654;12.044;2023-02-10T02:26:43;101442.91;;;4.46;100.00
19797;BME280;10058;57.654;12.044;2023-02-10T02:34:24;101440.50;;;4.49;100.00
19797;BME280;10058;57.654;12.044;2023-02-10T02:36:56;101455.00;;;4.44;100.00
19797;BME280;10058;57.654;12.044;2023-02-10T02:39:22;101444.53;;;4.44;100.00
19797;BME280;10058;57.654;12.044;2023-02-10T02:41:56;101460.03;;;4.41;100.00
19797;BME280;10058;57.654;12.044;2023-02-10T02:44:23;101458.63;;;4.46;100.00
19797;BME280;10058;57.654;12.044;2023-02-10T02:47:04;101476.88;;;4.31;100.00
19797;BME280;10058;57.654;12.044;2023-02-10T02:49:34;101473.16;;;4.28;100.00
19797;BME280;10058;57.654;12.044;2023-02-10T02:52:22;101485.09;;;4.37;100.00
19797;BME280;10058;57.654;12.044;2023-02-10T02:57:53;101472.13;;;4.39;100.00
19797;BME280;10058;57.654;12.044;2023-02-10T03:00:23;101465.22;;;4.54;100.00
19797;BME280;10058;57.654;12.044;2023-02-10T03:02:49;101461.84;;;4.42;100.00
19797;BME280;10058;57.654;12.044;2023-02-10T03:05:20;101461.44;;;4.36;100.00
19797;BME280;10058;57.654;12.044;2023-02-10T03:07:47;101467.09;;;4.42;100.00
19797;BME280;10058;57.654;12.044;2023-02-10T03:12:37;101469.03;;;4.31;100.00
19797;BME280;10058;57.654;12.044;2023-02-10T03:15:02;101469.53;;;4.26;100.00
19797;BME280;10058;57.654;12.044;2023-02-10T03:17:28;101478.97;;;4.37;100.00
19797;BME280;10058;57.654;12.044;2023-02-10T03:19:53;101465.41;;;4.29;100.00
19797;BME280;10058;57.654;12.044;2023-02-10T03:22:18;101466.31;;;4.30;100.00
19797;BME280;10058;57.654;12.044;2023-02-10T03:24:43;101470.94;;;4.20;100.00
19797;BME280;10058;57.654;12.044;2023-02-10T03:27:08;101480.91;;;4.26;100.00
19797;BME280;10058;57.654;12.044;2023-02-10T03:29:33;101486.03;;;4.25;100.00
19797;BME280;10058;57.654;12.044;2023-02-10T03:31:59;101472.72;;;4.35;100.00
19797;BME280;10058;57.654;12.044;2023-02-10T03:34:26;101472.81;;;4.36;100.00
19797;BME280;10058;57.654;12.044;2023-02-10T03:36:52;101476.25;;;4.35;100.00
19797;BME280;10058;57.654;12.044;2023-02-10T03:39:17;101474.97;;;4.29;100.00
19797;BME280;10058;57.654;12.044;2023-02-10T03:41:42;101487.06;;;4.27;100.00
19797;BME280;10058;57.654;12.044;2023-02-10T03:44:07;101483.84;;;4.31;100.00
19797;BME280;10058;57.654;12.044;2023-02-10T03:46:32;101484.72;;;4.31;100.00
19797;BME280;10058;57.654;12.044;2023-02-10T03:48:57;101492.84;;;4.36;100.00
19797;BME280;10058;57.654;12.044;2023-02-10T03:51:23;101483.03;;;4.18;100.00
19797;BME280;10058;57.654;12.044;2023-02-10T03:53:48;101482.66;;;4.12;100.00
19797;BME280;10058;57.654;12.044;2023-02-10T03:56:13;101476.72;;;4.15;100.00
19797;BME280;10058;57.654;12.044;2023-02-10T03:58:39;101486.44;;;4.17;100.00
19797;BME280;10058;57.654;12.044;2023-02-10T04:01:08;101485.63;;;4.18;100.00
19797;BME280;10058;57.654;12.044;2023-02-10T04:03:33;101499.63;;;4.19;100.00
19797;BME280;10058;57.654;12.044;2023-02-10T04:05:59;101510.16;;;4.34;100.00
19797;BME280;10058;57.654;12.044;2023-02-10T04:08:24;101503.94;;;4.18;100.00
19797;BME280;10058;57.654;12.044;2023-02-10T04:10:49;101511.19;;;4.23;100.00
19797;BME280;10058;57.654;12.044;2023-02-10T04:13:14;101527.22;;;4.14;100.00
19797;BME280;10058;57.654;12.044;2023-02-10T04:15:40;101534.56;;;4.06;100.00
19797;BME280;10058;57.654;12.044;2023-02-10T04:18:05;101537.88;;;4.17;100.00
19797;BME280;10058;57.654;12.044;2023-02-10T04:20:30;101545.44;;;4.12;100.00
19797;BME280;10058;57.654;12.044;2023-02-10T04:22:56;101540.81;;;4.08;100.00
19797;BME280;10058;57.654;12.044;2023-02-10T04:25:21;101543.81;;;4.28;100.00
19797;BME280;10058;57.654;12.044;2023-02-10T04:27:46;101546.13;;;4.23;100.00
19797;BME280;10058;57.654;12.044;2023-02-10T04:30:12;101542.00;;;4.13;100.00
19797;BME280;10058;57.654;12.044;2023-02-10T04:32:37;101549.25;;;4.17;100.00
19797;BME280;10058;57.654;12.044;2023-02-10T04:35:02;101554.78;;;4.09;100.00
19797;BME280;10058;57.654;12.044;2023-02-10T04:37:27;101555.28;;;4.03;100.00
19797;BME280;10058;57.654;12.044;2023-02-10T04:39:53;101558.53;;;4.12;100.00
19797;BME280;10058;57.654;12.044;2023-02-10T04:42:18;101561.72;;;4.08;100.00
19797;BME280;10058;57.654;12.044;2023-02-10T04:44:43;101571.97;;;4.18;100.00
19797;BME280;10058;57.654;12.044;2023-02-10T04:47:09;101573.28;;;3.99;100.00
19797;BME280;10058;57.654;12.044;2023-02-10T04:49:34;101576.22;;;4.30;100.00
19797;BME280;10058;57.654;12.044;2023-02-10T04:51:59;101572.63;;;4.14;100.00
19797;BME280;10058;57.654;12.044;2023-02-10T04:54:24;101542.31;;;4.05;100.00
19797;BME280;10058;57.654;12.044;2023-02-10T04:56:49;101576.13;;;4.15;100.00
19797;BME280;10058;57.654;12.044;2023-02-10T04:59:15;101571.28;;;4.21;100.00
19797;BME280;10058;57.654;12.044;2023-02-10T05:01:40;101578.50;;;3.99;100.00
19797;BME280;10058;57.654;12.044;2023-02-10T05:04:05;101565.34;;;4.10;100.00
19797;BME280;10058;57.654;12.044;2023-02-10T05:06:30;101557.50;;;4.10;100.00
19797;BME280;10058;57.654;12.044;2023-02-10T05:08:56;101562.75;;;4.10;100.00
19797;BME280;10058;57.654;12.044;2023-02-10T05:11:21;101567.56;;;4.04;100.00
19797;BME280;10058;57.654;12.044;2023-02-10T05:13:47;101565.94;;;4.06;100.00
19797;BME280;10058;57.654;12.044;2023-02-10T05:16:12;101581.66;;;4.06;100.00
19797;BME280;10058;57.654;12.044;2023-02-10T05:18:38;101589.13;;;4.13;100.00
19797;BME280;10058;57.654;12.044;2023-02-10T05:21:05;101602.56;;;4.06;100.00
19797;BME280;10058;57.654;12.044;2023-02-10T05:23:31;101596.34;;;4.17;100.00
19797;BME280;10058;57.654;12.044;2023-02-10T05:25:57;101607.81;;;4.06;100.00
19797;BME280;10058;57.654;12.044;2023-02-10T05:28:22;101618.38;;;4.21;100.00
19797;BME280;10058;57.654;12.044;2023-02-10T05:30:47;101623.72;;;4.23;100.00
19797;BME280;10058;57.654;12.044;2023-02-10T05:33:13;101619.78;;;4.16;100.00
19797;BME280;10058;57.654;12.044;2023-02-10T05:35:38;101626.66;;;4.14;100.00
19797;BME280;10058;57.654;12.044;2023-02-10T05:38:03;101629.53;;;3.92;100.00
19797;BME280;10058;57.654;12.044;2023-02-10T05:40:29;101628.13;;;3.97;100.00
19797;BME280;10058;57.654;12.044;2023-02-10T05:42:54;101616.44;;;3.92;100.00
19797;BME280;10058;57.654;12.044;2023-02-10T05:45:20;101616.66;;;4.08;100.00
19797;BME280;10058;57.654;12.044;2023-02-10T05:47:45;101616.66;;;3.95;100.00
19797;BME280;10058;57.654;12.044;2023-02-10T05:50:10;101618.25;;;3.93;100.00
19797;BME280;10058;57.654;12.044;2023-02-10T05:52:35;101619.47;;;3.98;100.00
19797;BME280;10058;57.654;12.044;2023-02-10T05:55:00;101616.25;;;4.02;100.00
19797;BME280;10058;57.654;12.044;2023-02-10T05:57:26;101629.72;;;3.95;100.00
19797;BME280;10058;57.654;12.044;2023-02-10T05:59:51;101636.97;;;3.99;100.00
19797;BME280;10058;57.654;12.044;2023-02-10T06:02:16;101629.22;;;4.01;100.00
19797;BME280;10058;57.654;12.044;2023-02-10T06:04:41;101638.09;;;4.03;100.00
19797;BME280;10058;57.654;12.044;2023-02-10T06:07:06;101638.19;;;4.04;100.00
19797;BME280;10058;57.654;12.044;2023-02-10T06:09:31;101636.78;;;3.96;100.00
19797;BME280;10058;57.654;12.044;2023-02-10T06:11:57;101646.59;;;3.87;100.00
19797;BME280;10058;57.654;12.044;2023-02-10T06:14:22;101640.94;;;3.81;100.00
19797;BME280;10058;57.654;12.044;2023-02-10T06:16:47;101641.09;;;3.96;100.00
19797;BME280;10058;57.654;12.044;2023-02-10T06:19:12;101631.72;;;3.99;100.00
19797;BME280;10058;57.654;12.044;2023-02-10T06:21:37;101632.50;;;3.85;100.00
19797;BME280;10058;57.654;12.044;2023-02-10T06:24:03;101644.56;;;3.83;100.00
19797;BME280;10058;57.654;12.044;2023-02-10T06:26:28;101649.63;;;3.80;100.00
19797;BME280;10058;57.654;12.044;2023-02-10T06:28:54;101659.06;;;3.78;100.00
19797;BME280;10058;57.654;12.044;2023-02-10T06:31:19;101666.69;;;3.75;100.00
19797;BME280;10058;57.654;12.044;2023-02-10T06:33:44;101673.41;;;3.71;100.00
19797;BME280;10058;57.654;12.044;2023-02-10T06:36:09;101629.97;;;3.48;100.00
19797;BME280;10058;57.654;12.044;2023-02-10T06:38:35;101680.09;;;3.79;100.00
19797;BME280;10058;57.654;12.044;2023-02-10T06:41:00;101690.47;;;3.91;100.00
19797;BME280;10058;57.654;12.044;2023-02-10T06:43:25;101682.31;;;3.87;100.00
19797;BME280;10058;57.654;12.044;2023-02-10T06:45:51;101694.09;;;3.93;100.00
19797;BME280;10058;57.654;12.044;2023-02-10T06:48:16;101697.53;;;3.92;100.00
19797;BME280;10058;57.654;12.044;2023-02-10T06:50:41;101698.75;;;3.72;100.00
19797;BME280;10058;57.654;12.044;2023-02-10T06:53:06;101701.47;;;3.74;100.00
19797;BME280;10058;57.654;12.044;2023-02-10T06:55:31;101697.59;;;3.80;100.00
19797;BME280;10058;57.654;12.044;2023-02-10T06:57:59;101705.94;;;3.88;100.00
19797;BME280;10058;57.654;12.044;2023-02-10T07:00:25;101714.81;;;3.90;100.00
19797;BME280;10058;57.654;12.044;2023-02-10T07:02:50;101714.81;;;3.90;100.00
19797;BME280;10058;57.654;12.044;2023-02-10T07:05:15;101719.09;;;3.76;100.00
19797;BME280;10058;57.654;12.044;2023-02-10T07:07:41;101720.94;;;3.91;100.00
19797;BME280;10058;57.654;12.044;2023-02-10T07:10:06;101711.72;;;3.71;100.00
19797;BME280;10058;57.654;12.044;2023-02-10T07:12:31;101712.16;;;3.77;100.00
19797;BME280;10058;57.654;12.044;2023-02-10T07:14:57;101712.31;;;3.67;100.00
19797;BME280;10058;57.654;12.044;2023-02-10T07:17:22;101709.28;;;3.61;100.00
19797;BME280;10058;57.654;12.044;2023-02-10T07:19:47;101725.34;;;3.78;100.00
19797;BME280;10058;57.654;12.044;2023-02-10T07:22:12;101734.66;;;3.75;100.00
19797;BME280;10058;57.654;12.044;2023-02-10T07:24:38;101741.41;;;3.96;100.00
19797;BME280;10058;57.654;12.044;2023-02-10T07:27:03;101741.41;;;3.96;100.00
19797;BME280;10058;57.654;12.044;2023-02-10T07:29:29;101752.50;;;4.05;100.00
19797;BME280;10058;57.654;12.044;2023-02-10T07:31:54;101748.94;;;3.92;100.00
19797;BME280;10058;57.654;12.044;2023-02-10T07:34:19;101745.03;;;3.98;100.00
19797;BME280;10058;57.654;12.044;2023-02-10T07:36:45;101739.38;;;3.92;100.00
19797;BME280;10058;57.654;12.044;2023-02-10T07:39:11;101746.41;;;3.93;100.00
19797;BME280;10058;57.654;12.044;2023-02-10T07:41:36;101740.84;;;4.13;100.00
19797;BME280;10058;57.654;12.044;2023-02-10T07:44:01;101747.84;;;4.01;100.00
19797;BME280;10058;57.654;12.044;2023-02-10T07:46:26;101742.47;;;4.11;100.00
19797;BME280;10058;57.654;12.044;2023-02-10T07:48:51;101746.47;;;4.06;100.00
19797;BME280;10058;57.654;12.044;2023-02-10T07:51:17;101736.34;;;3.99;100.00
19797;BME280;10058;57.654;12.044;2023-02-10T07:53:42;101738.41;;;4.16;100.00
19797;BME280;10058;57.654;12.044;2023-02-10T07:56:07;101740.34;;;4.19;100.00
19797;BME280;10058;57.654;12.044;2023-02-10T07:58:33;101745.88;;;4.10;100.00
19797;BME280;10058;57.654;12.044;2023-02-10T08:00:58;101746.91;;;4.26;100.00
19797;BME280;10058;57.654;12.044;2023-02-10T08:03:23;101752.94;;;4.25;100.00
19797;BME280;10058;57.654;12.044;2023-02-10T08:05:48;101742.75;;;4.16;100.00
19797;BME280;10058;57.654;12.044;2023-02-10T08:08:14;101745.13;;;4.51;100.00
19797;BME280;10058;57.654;12.044;2023-02-10T08:10:39;101747.38;;;4.45;100.00
19797;BME280;10058;57.654;12.044;2023-02-10T08:13:05;101748.16;;;4.44;100.00
19797;BME280;10058;57.654;12.044;2023-02-10T08:15:30;101743.53;;;4.53;100.00
19797;BME280;10058;57.654;12.044;2023-02-10T08:17:57;101754.44;;;4.59;100.00
19797;BME280;10058;57.654;12.044;2023-02-10T08:20:22;101765.13;;;4.62;100.00
19797;BME280;10058;57.654;12.044;2023-02-10T08:22:47;101771.25;;;4.63;100.00
19797;BME280;10058;57.654;12.044;2023-02-10T08:25:13;101781.84;;;4.77;100.00
19797;BME280;10058;57.654;12.044;2023-02-10T08:27:38;101781.63;;;4.87;100.00
19797;BME280;10058;57.654;12.044;2023-02-10T08:30:03;101786.06;;;4.88;100.00
19797;BME280;10058;57.654;12.044;2023-02-10T08:32:30;101787.69;;;4.86;100.00
19797;BME280;10058;57.654;12.044;2023-02-10T08:34:55;101795.66;;;4.88;100.00
19797;BME280;10058;57.654;12.044;2023-02-10T08:37:20;101794.13;;;4.78;100.00
19797;BME280;10058;57.654;12.044;2023-02-10T08:39:46;101796.97;;;4.95;100.00
19797;BME280;10058;57.654;12.044;2023-02-10T08:42:11;101802.81;;;5.04;100.00
19797;BME280;10058;57.654;12.044;2023-02-10T08:44:36;101799.28;;;5.03;100.00
19797;BME280;10058;57.654;12.044;2023-02-10T08:47:02;101800.41;;;5.07;100.00
19797;BME280;10058;57.654;12.044;2023-02-10T08:49:27;101792.31;;;5.04;100.00
19797;BME280;10058;57.654;12.044;2023-02-10T08:51:53;101784.47;;;5.04;100.00
19797;BME280;10058;57.654;12.044;2023-02-10T08:54:19;101789.41;;;4.99;100.00
19797;BME280;10058;57.654;12.044;2023-02-10T08:56:45;101791.13;;;5.12;100.00
19797;BME280;10058;57.654;12.044;2023-02-10T08:59:10;101777.09;;;5.24;100.00
19797;BME280;10058;57.654;12.044;2023-02-10T09:01:35;101780.63;;;5.25;100.00
19797;BME280;10058;57.654;12.044;2023-02-10T09:04:01;101789.03;;;5.19;100.00
19797;BME280;10058;57.654;12.044;2023-02-10T09:06:27;101787.50;;;5.10;100.00
19797;BME280;10058;57.654;12.044;2023-02-10T09:08:53;101778.63;;;5.34;100.00
19797;BME280;10058;57.654;12.044;2023-02-10T09:11:19;101774.69;;;5.28;100.00
19797;BME280;10058;57.654;12.044;2023-02-10T09:13:47;101780.22;;;5.32;100.00
19797;BME280;10058;57.654;12.044;2023-02-10T09:16:12;101779.94;;;5.28;100.00
19797;BME280;10058;57.654;12.044;2023-02-10T09:18:37;101777.50;;;5.31;100.00
19797;BME280;10058;57.654;12.044;2023-02-10T09:21:02;101768.63;;;5.29;100.00
19797;BME280;10058;57.654;12.044;2023-02-10T09:23:27;101767.72;;;5.28;100.00
19797;BME280;10058;57.654;12.044;2023-02-10T09:25:58;101766.91;;;5.29;100.00
19797;BME280;10058;57.654;12.044;2023-02-10T09:28:24;101777.38;;;5.42;100.00
19797;BME280;10058;57.654;12.044;2023-02-10T09:30:49;101775.06;;;5.47;100.00
19797;BME280;10058;57.654;12.044;2023-02-10T09:33:14;101769.31;;;5.52;100.00
19797;BME280;10058;57.654;12.044;2023-02-10T09:35:40;101780.00;;;5.42;100.00
19797;BME280;10058;57.654;12.044;2023-02-10T09:38:06;101780.06;;;5.57;100.00
19797;BME280;10058;57.654;12.044;2023-02-10T09:40:32;101777.94;;;5.65;100.00
19797;BME280;10058;57.654;12.044;2023-02-10T09:45:55;101772.25;;;5.72;100.00
19797;BME280;10058;57.654;12.044;2023-02-10T09:50:49;101773.94;;;5.84;100.00
19797;BME280;10058;57.654;12.044;2023-02-10T09:53:17;101777.47;;;5.85;100.00
19797;BME280;10058;57.654;12.044;2023-02-10T09:55:58;101773.84;;;5.83;100.00
19797;BME280;10058;57.654;12.044;2023-02-10T10:03:50;101778.00;;;6.07;100.00
19797;BME280;10058;57.654;12.044;2023-02-10T10:08:44;101780.41;;;6.17;100.00
19797;BME280;10058;57.654;12.044;2023-02-10T10:11:33;101784.22;;;6.22;100.00
19797;BME280;10058;57.654;12.044;2023-02-10T10:14:00;101794.88;;;6.25;100.00
19797;BME280;10058;57.654;12.044;2023-02-10T10:16:40;101782.22;;;6.18;100.00
19797;BME280;10058;57.654;12.044;2023-02-10T10:19:14;101784.22;;;6.22;100.00
19797;BME280;10058;57.654;12.044;2023-02-10T10:22:05;101782.13;;;5.89;100.00
19797;BME280;10058;57.654;12.044;2023-02-10T10:24:42;101792.25;;;6.25;100.00
19797;BME280;10058;57.654;12.044;2023-02-10T10:29:39;101788.09;;;6.29;100.00
19797;BME280;10058;57.654;12.044;2023-02-10T10:34:54;101797.38;;;6.09;100.00
19797;BME280;10058;57.654;12.044;2023-02-10T10:37:23;101802.31;;;6.18;100.00
19797;BME280;10058;57.654;12.044;2023-02-10T10:39:50;101804.88;;;6.46;100.00
19797;BME280;10058;57.654;12.044;2023-02-10T10:44:49;101804.47;;;6.53;100.00
19797;BME280;10058;57.654;12.044;2023-02-10T10:47:16;101805.47;;;6.55;100.00
19797;BME280;10058;57.654;12.044;2023-02-10T10:49:43;101797.09;;;6.47;100.00
19797;BME280;10058;57.654;12.044;2023-02-10T10:52:30;101803.63;;;6.54;100.00
19797;BME280;10058;57.654;12.044;2023-02-10T10:54:54;101788.94;;;6.43;100.00
19797;BME280;10058;57.654;12.044;2023-02-10T10:57:19;101788.41;;;6.34;100.00
19797;BME280;10058;57.654;12.044;2023-02-10T10:59:52;101799.91;;;6.36;100.00
19797;BME280;10058;57.654;12.044;2023-02-10T11:02:20;101797.47;;;6.39;100.00
19797;BME280;10058;57.654;12.044;2023-02-10T11:04:58;101784.78;;;6.32;100.00
19797;BME280;10058;57.654;12.044;2023-02-10T11:07:24;101792.81;;;6.20;100.00
19797;BME280;10058;57.654;12.044;2023-02-10T11:09:50;101789.69;;;6.40;100.00
19797;BME280;10058;57.654;12.044;2023-02-10T11:12:36;101786.78;;;6.50;100.00
19797;BME280;10058;57.654;12.044;2023-02-10T11:15:04;101771.75;;;6.48;100.00
19797;BME280;10058;57.654;12.044;2023-02-10T11:17:46;101762.66;;;6.28;100.00
19797;BME280;10058;57.654;12.044;2023-02-10T11:22:38;101755.09;;;6.62;100.00
19797;BME280;10058;57.654;12.044;2023-02-10T11:25:27;101750.22;;;6.39;100.00
19797;BME280;10058;57.654;12.044;2023-02-10T11:27:53;101741.38;;;6.23;100.00
19797;BME280;10058;57.654;12.044;2023-02-10T11:30:32;101739.69;;;6.68;100.00
19797;BME280;10058;57.654;12.044;2023-02-10T11:32:58;101741.69;;;6.72;100.00
19797;BME280;10058;57.654;12.044;2023-02-10T11:35:24;101744.56;;;6.77;100.00
19797;BME280;10058;57.654;12.044;2023-02-10T11:37:54;101742.59;;;6.73;100.00
19797;BME280;10058;57.654;12.044;2023-02-10T11:40:21;101749.47;;;6.85;100.00
19797;BME280;10058;57.654;12.044;2023-02-10T11:42:55;101741.81;;;7.05;100.00
19797;BME280;10058;57.654;12.044;2023-02-10T11:45:23;101752.00;;;6.69;100.00
19797;BME280;10058;57.654;12.044;2023-02-10T11:47:59;101744.66;;;6.63;100.00
19797;BME280;10058;57.654;12.044;2023-02-10T11:50:26;101752.00;;;6.69;100.00
19797;BME280;10058;57.654;12.044;2023-02-10T11:52:51;101752.88;;;6.25;100.00
19797;BME280;10058;57.654;12.044;2023-02-10T11:55:17;101744.38;;;6.59;100.00
19797;BME280;10058;57.654;12.044;2023-02-10T12:00:37;101724.50;;;6.93;100.00
19797;BME280;10058;57.654;12.044;2023-02-10T12:03:09;101728.63;;;6.88;100.00
19797;BME280;10058;57.654;12.044;2023-02-10T12:05:50;101735.91;;;6.94;100.00
19797;BME280;10058;57.654;12.044;2023-02-10T12:10:59;101730.06;;;6.83;100.00
19797;BME280;10058;57.654;12.044;2023-02-10T12:13:33;101729.47;;;6.73;100.00
19797;BME280;10058;57.654;12.044;2023-02-10T12:18:50;101719.38;;;6.80;100.00
19797;BME280;10058;57.654;12.044;2023-02-10T12:26:29;101718.13;;;6.74;100.00
19797;BME280;10058;57.654;12.044;2023-02-10T12:32:23;101699.50;;;7.00;100.00
19797;BME280;10058;57.654;12.044;2023-02-10T12:34:47;101702.25;;;7.18;100.00
19797;BME280;10058;57.654;12.044;2023-02-10T12:37:18;101708.53;;;7.36;100.00
19797;BME280;10058;57.654;12.044;2023-02-10T12:39:48;101708.97;;;7.13;100.00
19797;BME280;10058;57.654;12.044;2023-02-10T12:44:59;101704.41;;;6.79;100.00
19797;BME280;10058;57.654;12.044;2023-02-10T12:54:52;101687.16;;;6.68;100.00
19797;BME280;10058;57.654;12.044;2023-02-10T12:57:26;101684.94;;;6.90;100.00
19797;BME280;10058;57.654;12.044;2023-02-10T13:02:46;101672.78;;;6.92;100.00
19797;BME280;10058;57.654;12.044;2023-02-10T13:05:15;101665.00;;;6.79;100.00
19797;BME280;10058;57.654;12.044;2023-02-10T13:07:47;101657.03;;;6.92;100.00
19797;BME280;10058;57.654;12.044;2023-02-10T13:12:44;101613.41;;;6.19;100.00
19797;BME280;10058;57.654;12.044;2023-02-10T13:17:43;101649.69;;;6.26;100.00
19797;BME280;10058;57.654;12.044;2023-02-10T13:20:32;101637.75;;;6.02;100.00
19797;BME280;10058;57.654;12.044;2023-02-10T13:25:51;101630.31;;;5.95;100.00
19797;BME280;10058;57.654;12.044;2023-02-10T13:28:27;101630.88;;;6.04;100.00
19797;BME280;10058;57.654;12.044;2023-02-10T13:35:49;101620.00;;;6.27;100.00
19797;BME280;10058;57.654;12.044;2023-02-10T13:38:16;101624.72;;;6.04;100.00
19797;BME280;10058;57.654;12.044;2023-02-10T13:43:21;101594.44;;;5.81;100.00
19797;BME280;10058;57.654;12.044;2023-02-10T13:45:49;101593.84;;;5.85;100.00
19797;BME280;10058;57.654;12.044;2023-02-10T13:48:22;101595.78;;;5.59;100.00
19797;BME280;10058;57.654;12.044;2023-02-10T13:50:54;101591.53;;;5.62;100.00
19797;BME280;10058;57.654;12.044;2023-02-10T13:58:48;101557.31;;;5.31;100.00
19797;BME280;10058;57.654;12.044;2023-02-10T14:03:58;101538.84;;;5.14;100.00
19797;BME280;10058;57.654;12.044;2023-02-10T14:06:34;101518.97;;;5.18;100.00
19797;BME280;10058;57.654;12.044;2023-02-10T14:09:05;101517.34;;;5.20;100.00
19797;BME280;10058;57.654;12.044;2023-02-10T14:11:41;101509.03;;;5.27;100.00
19797;BME280;10058;57.654;12.044;2023-02-10T14:14:21;101502.91;;;5.27;100.00
19797;BME280;10058;57.654;12.044;2023-02-10T14:16:50;101511.38;;;5.22;100.00
19797;BME280;10058;57.654;12.044;2023-02-10T14:19:23;101497.81;;;5.15;100.00
19797;BME280;10058;57.654;12.044;2023-02-10T14:21:53;101487.88;;;5.09;100.00